5 day graph

You are here

Error message

  • Notice: Trying to access array offset on value of type int in DrupalRequestSanitizer::stripDangerousValues() (line 102 of /home/twolittl/public_html/cms/includes/request-sanitizer.inc).
  • Notice: Trying to access array offset on value of type int in DrupalRequestSanitizer::stripDangerousValues() (line 102 of /home/twolittl/public_html/cms/includes/request-sanitizer.inc).
  • Notice: Trying to access array offset on value of type int in DrupalRequestSanitizer::stripDangerousValues() (line 102 of /home/twolittl/public_html/cms/includes/request-sanitizer.inc).
  • Notice: Trying to access array offset on value of type int in DrupalRequestSanitizer::stripDangerousValues() (line 102 of /home/twolittl/public_html/cms/includes/request-sanitizer.inc).
  • Notice: Trying to access array offset on value of type int in DrupalRequestSanitizer::stripDangerousValues() (line 102 of /home/twolittl/public_html/cms/includes/request-sanitizer.inc).
  • Notice: Trying to access array offset on value of type int in DrupalRequestSanitizer::stripDangerousValues() (line 102 of /home/twolittl/public_html/cms/includes/request-sanitizer.inc).
  • Notice: Trying to access array offset on value of type int in DrupalRequestSanitizer::stripDangerousValues() (line 102 of /home/twolittl/public_html/cms/includes/request-sanitizer.inc).
  • Notice: Trying to access array offset on value of type int in DrupalRequestSanitizer::stripDangerousValues() (line 102 of /home/twolittl/public_html/cms/includes/request-sanitizer.inc).
  • Deprecated function: Function get_magic_quotes_gpc() is deprecated in phpMyEdit->get_cgi_var() (line 1773 of /home/twolittl/public_html/phpMyEdit.class.php).
  • Deprecated function: implode(): Passing glue string after array is deprecated. Swap the parameters in drupal_get_feeds() (line 394 of /home/twolittl/public_html/cms/includes/common.inc).

Hive Data

Page: 1 of 16645  Records: 998690

Row Date Time Hive Temp Hive Humidity Outside Temp Outside Humidity Bottom Board Temp Outside Wall Temp Electronics Temp Light Levels inHG Fan Heat Cover Notes
Clear Sorted By: Electronics Temp ascending, Light Levels descending, Outside Wall Temp ascending, Row descending
View 722119 Nov 29 2015 7:10:28am 62.06 41 19.04 80 18.5 26.6 33.8 446 29.46 0 0 0 NA
View 722229 Nov 29 2015 9:00:49am 61.34 50 20.66 79 18.05 26.6 35.6 467 29.47 0 0 0 NA
View 722228 Nov 29 2015 8:59:49am 61.34 45 20.66 79 18.05 26.6 35.6 466 29.47 0 0 0 NA
View 722227 Nov 29 2015 8:58:49am 61.34 47 20.48 79 18.05 26.6 35.6 466 29.47 0 0 0 NA
View 722225 Nov 29 2015 8:56:48am 61.34 41 20.48 79 18.05 26.6 35.6 466 29.47 0 0 0 NA
View 722223 Nov 29 2015 8:54:48am 61.34 47 20.48 80 18.05 26.6 35.6 466 29.46 0 0 0 NA
View 722231 Nov 29 2015 9:02:49am 61.52 50 20.66 80 18.05 26.6 35.6 465 29.47 0 0 0 NA
View 722226 Nov 29 2015 8:57:48am 61.16 49 20.66 79 18.05 26.6 35.6 465 29.47 0 0 0 NA
View 722224 Nov 29 2015 8:55:48am 61.34 42 20.48 79 18.05 26.6 35.6 465 29.46 0 0 0 NA
View 722221 Nov 29 2015 8:52:47am 61.16 47 20.3 80 18.05 26.6 35.6 465 29.47 0 0 0 NA
View 722220 Nov 29 2015 8:51:47am 61.16 47 20.3 80 18.05 26.6 35.6 465 29.47 0 0 0 NA
View 722219 Nov 29 2015 8:50:47am 61.16 44 20.3 80 18.05 26.6 35.6 465 29.47 0 0 0 NA
View 722218 Nov 29 2015 8:49:47am 60.98 45 20.12 79 18.05 26.6 35.6 465 29.47 0 0 0 NA
View 722217 Nov 29 2015 8:48:47am 60.8 49 20.12 79 18.05 26.6 35.6 465 29.46 0 0 0 NA
View 722216 Nov 29 2015 8:47:46am 60.8 43 20.12 80 18.05 26.6 35.6 464 29.46 0 0 0 NA
View 722215 Nov 29 2015 8:46:46am 60.62 45 20.12 80 18.05 26.6 35.6 464 29.47 0 0 0 NA
View 722214 Nov 29 2015 8:45:46am 60.44 43 20.12 80 18.05 26.6 35.6 464 29.47 0 0 0 NA
View 722213 Nov 29 2015 8:44:46am 60.44 45 20.12 80 18.05 26.6 35.6 464 29.46 0 0 0 NA
View 722210 Nov 29 2015 8:41:45am 60.26 39 19.94 80 18.05 26.6 35.6 464 29.46 0 0 0 NA
View 722209 Nov 29 2015 8:40:45am 60.26 40 19.94 80 18.05 26.6 35.6 464 29.46 0 0 0 NA
View 722208 Nov 29 2015 8:39:45am 60.26 40 19.94 80 18.05 26.6 35.6 464 29.46 0 0 0 NA
View 722212 Nov 29 2015 8:43:46am 60.26 41 19.94 81 18.05 27.05 35.6 464 29.46 0 0 0 NA
View 722211 Nov 29 2015 8:42:46am 60.26 40 19.94 80 18.05 27.05 35.6 464 29.46 0 0 0 NA
View 722230 Nov 29 2015 9:01:49am 61.34 51 20.66 79 18.05 26.6 35.6 463 29.47 0 0 0 NA
View 722222 Nov 29 2015 8:53:48am 61.34 49 20.48 80 18.05 26.6 35.6 463 29.46 0 0 0 NA
View 722207 Nov 29 2015 8:38:45am 60.08 39 19.76 79 18.05 26.6 35.6 463 29.46 0 0 0 NA
View 722206 Nov 29 2015 8:37:44am 60.08 43 19.76 80 18.05 26.6 35.6 463 29.46 0 0 0 NA
View 722204 Nov 29 2015 8:35:44am 59.9 42 19.76 80 18.05 26.6 35.6 463 29.46 0 0 0 NA
View 722201 Nov 29 2015 8:32:43am 60.08 41 19.58 79 18.05 26.6 35.6 463 29.46 0 0 0 NA
View 722200 Nov 29 2015 8:31:43am 60.08 42 19.58 79 18.05 26.6 35.6 463 29.46 0 0 0 NA
View 722203 Nov 29 2015 8:34:44am 60.08 39 19.58 80 18.05 26.6 35.6 462 29.46 0 0 0 NA
View 722202 Nov 29 2015 8:33:44am 60.08 37 19.58 79 18.05 26.6 35.6 462 29.46 0 0 0 NA
View 722199 Nov 29 2015 8:30:43am 60.08 44 19.58 79 18.05 26.6 35.6 462 29.46 0 0 0 NA
View 722198 Nov 29 2015 8:29:43am 60.08 37 19.58 80 18.05 26.6 35.6 462 29.46 0 0 0 NA
View 722196 Nov 29 2015 8:27:42am 60.44 37 19.4 80 18.05 26.6 35.6 461 29.46 0 0 0 NA
View 722195 Nov 29 2015 8:26:42am 60.44 38 19.4 80 18.05 26.6 35.6 461 29.47 0 0 0 NA
View 722194 Nov 29 2015 8:25:42am 60.62 39 19.4 80 18.05 26.6 35.6 461 29.46 0 0 0 NA
View 722193 Nov 29 2015 8:24:42am 60.8 44 19.4 80 18.05 26.6 35.6 461 29.46 0 0 0 NA
View 722191 Nov 29 2015 8:22:42am 60.98 49 19.4 79 18.05 26.6 35.6 461 29.46 0 0 0 NA
View 722189 Nov 29 2015 8:20:41am 60.98 51 19.22 80 18.05 26.6 35.6 461 29.46 0 0 0 NA
View 720800 Nov 28 2015 9:06:11am 61.52 54 22.28 82 19.4 28.4 35.6 461 29.57 0 0 0 NA
View 720799 Nov 28 2015 9:05:11am 61.52 56 22.1 82 19.85 28.4 35.6 461 29.56 0 0 0 NA
View 720798 Nov 28 2015 9:04:10am 61.34 55 22.1 83 19.4 28.4 35.6 461 29.56 0 0 0 NA
View 720797 Nov 28 2015 9:03:10am 61.34 55 22.1 82 19.4 28.4 35.6 461 29.56 0 0 0 NA
View 720796 Nov 28 2015 9:02:10am 61.16 54 22.1 82 19.4 28.4 35.6 461 29.56 0 0 0 NA
View 720795 Nov 28 2015 9:01:10am 61.16 46 21.92 82 19.4 28.4 35.6 461 29.57 0 0 0 NA
View 720794 Nov 28 2015 9:00:10am 61.34 53 21.92 82 19.4 28.4 35.6 461 29.56 0 0 0 NA
View 720793 Nov 28 2015 8:59:09am 61.16 49 21.92 82 19.4 28.4 35.6 461 29.56 0 0 0 NA
View 720792 Nov 28 2015 8:58:09am 61.34 50 21.74 82 19.4 28.4 35.6 461 29.57 0 0 0 NA
View 722190 Nov 29 2015 8:21:41am 60.98 45 19.4 79 18.05 26.6 35.6 460 29.46 0 0 0 NA
View 722188 Nov 29 2015 8:19:41am 60.8 55 19.22 80 18.05 26.6 35.6 460 29.46 0 0 0 NA
View 722187 Nov 29 2015 8:18:41am 60.62 53 19.22 80 18.05 26.6 35.6 460 29.46 0 0 0 NA
View 722186 Nov 29 2015 8:17:41am 60.62 45 19.22 80 18.05 26.6 35.6 460 29.46 0 0 0 NA
View 722185 Nov 29 2015 8:16:40am 60.8 41 19.22 80 18.05 26.6 35.6 460 29.46 0 0 0 NA
View 722184 Nov 29 2015 8:15:40am 60.8 42 19.22 80 18.05 26.6 35.6 460 29.46 0 0 0 NA
View 720791 Nov 28 2015 8:57:09am 61.34 43 21.74 82 19.4 28.4 35.6 460 29.57 0 0 0 NA
View 720790 Nov 28 2015 8:56:09am 61.34 48 21.74 82 19.4 28.4 35.6 460 29.57 0 0 0 NA
View 720787 Nov 28 2015 8:53:08am 61.16 43 21.56 82 19.4 28.4 35.6 460 29.56 0 0 0 NA
View 720786 Nov 28 2015 8:52:08am 61.16 47 21.56 82 19.4 28.4 35.6 460 29.57 0 0 0 NA
View 720781 Nov 28 2015 8:47:07am 60.98 60 21.38 82 19.4 28.4 35.6 460 29.57 0 0 0 NA